createdAt,value
2023-02-12T00:00:10.086Z,52.13
2023-02-12T00:02:43.135Z,51.05
2023-02-12T00:05:10.126Z,48.42
2023-02-12T00:07:37.030Z,49.65
2023-02-12T00:10:04.580Z,49.15
2023-02-12T00:12:31.438Z,51.08
2023-02-12T00:14:58.307Z,54.50
2023-02-12T00:17:25.187Z,53.15
2023-02-12T00:19:52.098Z,51.20
2023-02-12T00:22:18.986Z,53.72
2023-02-12T00:24:45.872Z,55.00
2023-02-12T00:27:12.933Z,60.42
2023-02-12T00:29:39.912Z,54.08
2023-02-12T00:32:07.532Z,58.45
2023-02-12T00:34:34.432Z,55.45
2023-02-12T00:37:01.298Z,63.22
2023-02-12T00:39:28.237Z,53.55
2023-02-12T00:41:55.162Z,51.33
2023-02-12T00:44:22.109Z,57.38
2023-02-12T00:46:49.120Z,59.45
2023-02-12T00:49:19.130Z,48.28
2023-02-12T00:51:46.609Z,57.28
2023-02-12T00:54:13.482Z,57.60
2023-02-12T00:56:40.539Z,51.70
2023-02-12T00:59:07.574Z,58.78
2023-02-12T01:01:35.727Z,61.45
2023-02-12T01:04:03.858Z,54.40
2023-02-12T01:06:30.742Z,72.68
2023-02-12T01:08:57.734Z,64.57
2023-02-12T01:11:24.623Z,77.32
2023-02-12T01:13:52.443Z,76.75
2023-02-12T01:16:22.618Z,72.90
2023-02-12T01:18:52.166Z,84.03
2023-02-12T01:21:23.342Z,66.28
2023-02-12T01:23:50.457Z,66.50
2023-02-12T01:26:19.188Z,59.88
2023-02-12T01:28:50.850Z,64.15
2023-02-12T01:31:21.707Z,67.82
2023-02-12T01:33:53.367Z,58.88
2023-02-12T01:36:21.181Z,62.80
2023-02-12T01:38:49.038Z,70.85
2023-02-12T01:41:21.658Z,67.82
2023-02-12T01:44:07.162Z,62.58
2023-02-12T01:46:34.157Z,66.95
2023-02-12T01:49:03.609Z,67.45
2023-02-12T01:51:32.103Z,74.95
2023-02-12T01:54:01.824Z,76.80
2023-02-12T01:56:29.954Z,74.30
2023-02-12T01:58:57.891Z,69.60
2023-02-12T02:01:28.937Z,68.72
2023-02-12T02:04:05.505Z,62.92
2023-02-12T02:06:36.200Z,72.05
2023-02-12T02:09:04.566Z,70.30
2023-02-12T02:11:50.754Z,58.15
2023-02-12T02:14:33.203Z,60.88
2023-02-12T02:17:31.293Z,68.90
2023-02-12T02:20:04.227Z,58.17
2023-02-12T02:22:33.863Z,62.47
2023-02-12T02:25:03.707Z,60.97
2023-02-12T02:27:36.042Z,49.28
2023-02-12T02:30:57.149Z,79.28
2023-02-12T02:33:56.167Z,61.00
2023-02-12T02:36:59.652Z,59.00
2023-02-12T02:40:05.859Z,55.13
2023-02-12T02:42:58.690Z,55.47
2023-02-12T02:45:34.076Z,53.65
2023-02-12T02:48:06.968Z,68.10
2023-02-12T02:50:38.452Z,55.97
2023-02-12T02:53:13.482Z,56.30
2023-02-12T02:55:57.286Z,54.22
2023-02-12T02:58:30.861Z,53.00
2023-02-12T03:01:05.968Z,46.50
2023-02-12T03:03:38.654Z,53.58
2023-02-12T03:06:18.681Z,54.45
2023-02-12T03:08:54.555Z,61.47
2023-02-12T03:11:24.540Z,61.05
2023-02-12T03:14:08.009Z,64.57
2023-02-12T03:16:39.604Z,46.67
2023-02-12T03:19:17.162Z,59.28
2023-02-12T03:21:49.906Z,54.80
2023-02-12T03:24:28.917Z,51.90
2023-02-12T03:27:09.265Z,61.22
2023-02-12T03:29:36.377Z,47.65
2023-02-12T03:32:28.027Z,45.08
2023-02-12T03:35:23.916Z,45.30
2023-02-12T03:38:04.149Z,46.20
2023-02-12T03:40:51.503Z,43.90
2023-02-12T03:43:42.848Z,56.08
2023-02-12T03:46:24.987Z,45.75
2023-02-12T03:49:07.336Z,39.65
2023-02-12T03:51:39.714Z,44.72
2023-02-12T03:54:09.434Z,37.15
2023-02-12T03:56:52.205Z,43.53
2023-02-12T03:59:21.438Z,31.75
2023-02-12T04:01:50.532Z,38.22
2023-02-12T04:04:17.684Z,31.33
2023-02-12T04:06:47.936Z,34.70
2023-02-12T04:09:15.717Z,33.50
2023-02-12T04:12:07.124Z,44.38
2023-02-12T04:15:12.424Z,37.30
2023-02-12T04:18:02.650Z,39.92
2023-02-12T04:20:44.745Z,43.33
2023-02-12T04:23:18.096Z,45.22
2023-02-12T04:26:03.048Z,57.38
2023-02-12T04:29:14.659Z,29.27
2023-02-12T04:31:47.675Z,43.65
2023-02-12T04:34:44.386Z,33.72
2023-02-12T04:37:19.651Z,36.75
2023-02-12T04:39:48.218Z,39.15
2023-02-12T04:42:15.674Z,35.88
2023-02-12T04:44:44.433Z,36.13
2023-02-12T04:47:16.361Z,31.13
2023-02-12T04:49:43.517Z,27.80
2023-02-12T04:52:10.458Z,28.80
2023-02-12T04:54:37.608Z,35.25
2023-02-12T04:57:04.578Z,40.85
2023-02-12T04:59:31.497Z,32.67
2023-02-12T05:01:58.515Z,35.67
2023-02-12T05:04:25.425Z,36.67
2023-02-12T05:06:52.260Z,35.53
2023-02-12T05:09:20.478Z,33.22
2023-02-12T05:11:47.521Z,36.00
2023-02-12T05:14:14.848Z,32.13
2023-02-12T05:16:41.756Z,36.33
2023-02-12T05:19:09.735Z,33.53
2023-02-12T05:21:38.000Z,35.50
2023-02-12T05:24:05.626Z,39.10
2023-02-12T05:26:32.826Z,40.25
2023-02-12T05:28:59.751Z,39.15
2023-02-12T05:31:27.126Z,39.47
2023-02-12T05:33:54.132Z,38.38
2023-02-12T05:36:23.946Z,45.38
2023-02-12T05:38:56.881Z,39.80
2023-02-12T05:41:25.439Z,39.45
2023-02-12T05:43:53.180Z,39.85
2023-02-12T05:46:22.127Z,35.58
2023-02-12T05:48:49.312Z,44.90
2023-02-12T05:51:20.069Z,38.88
2023-02-12T05:53:47.500Z,38.13
2023-02-12T05:56:20.435Z,37.97
2023-02-12T05:58:52.446Z,40.70
2023-02-12T06:01:23.079Z,39.47
2023-02-12T06:03:49.973Z,38.90
2023-02-12T06:06:16.894Z,39.97
2023-02-12T06:08:44.265Z,38.83
2023-02-12T06:11:14.284Z,40.70
2023-02-12T06:13:41.573Z,35.05
2023-02-12T06:16:16.604Z,40.78
2023-02-12T06:18:43.471Z,44.83
2023-02-12T06:21:10.408Z,47.35
2023-02-12T06:23:37.333Z,46.17
2023-02-12T06:26:04.542Z,38.58
2023-02-12T06:28:31.456Z,37.65
2023-02-12T06:30:58.513Z,39.10
2023-02-12T06:33:25.481Z,36.88
2023-02-12T06:35:52.358Z,40.00
2023-02-12T06:38:19.285Z,41.67
2023-02-12T06:40:46.229Z,37.50
2023-02-12T06:43:13.132Z,34.78
2023-02-12T06:45:40.149Z,37.35
2023-02-12T06:48:07.181Z,40.22
2023-02-12T06:50:34.233Z,37.40
2023-02-12T06:53:01.155Z,39.55
2023-02-12T06:55:28.064Z,36.40
2023-02-12T06:57:54.981Z,39.45
2023-02-12T07:00:22.374Z,36.20
2023-02-12T07:02:54.526Z,35.95
2023-02-12T07:05:22.134Z,36.92
2023-02-12T07:07:49.036Z,48.40
2023-02-12T07:10:16.202Z,37.03
2023-02-12T07:12:43.117Z,42.88
2023-02-12T07:15:10.909Z,38.78
2023-02-12T07:17:38.039Z,38.78
2023-02-12T07:20:05.733Z,43.45
2023-02-12T07:22:36.193Z,41.95
2023-02-12T07:25:03.278Z,38.53
2023-02-12T07:27:30.200Z,35.90
2023-02-12T07:29:57.061Z,40.30
2023-02-12T07:32:23.922Z,39.17
2023-02-12T07:34:50.802Z,32.40
2023-02-12T07:37:22.717Z,35.92
2023-02-12T07:39:50.287Z,35.83
2023-02-12T07:42:17.941Z,40.38
2023-02-12T07:44:49.728Z,34.47
2023-02-12T07:47:17.187Z,38.80
2023-02-12T07:49:44.368Z,41.05
2023-02-12T07:52:13.371Z,37.55
2023-02-12T07:54:40.469Z,39.33
2023-02-12T07:57:07.334Z,38.63
2023-02-12T07:59:34.220Z,35.92
2023-02-12T08:02:01.387Z,35.38
2023-02-12T08:04:28.443Z,34.42
2023-02-12T08:06:56.591Z,37.38
2023-02-12T08:09:27.148Z,34.85
2023-02-12T08:11:54.444Z,36.80
2023-02-12T08:14:22.257Z,32.17
2023-02-12T08:16:50.696Z,31.90
2023-02-12T08:19:22.526Z,38.42
2023-02-12T08:21:53.228Z,32.30
2023-02-12T08:24:22.213Z,32.50
2023-02-12T08:26:49.850Z,32.00
2023-02-12T08:29:19.240Z,37.10
2023-02-12T08:31:48.798Z,38.13
2023-02-12T08:34:20.945Z,36.97
2023-02-12T08:36:49.710Z,34.63
2023-02-12T08:39:18.088Z,38.67
2023-02-12T08:41:45.627Z,36.85
2023-02-12T08:44:13.511Z,34.85
2023-02-12T08:46:44.537Z,34.90
2023-02-12T08:49:14.903Z,31.67
2023-02-12T08:51:44.349Z,35.05
2023-02-12T08:54:18.093Z,36.60
2023-02-12T08:56:45.631Z,35.28
2023-02-12T08:59:13.725Z,37.47
2023-02-12T09:01:44.374Z,32.10
2023-02-12T09:04:18.190Z,32.75
2023-02-12T09:06:46.749Z,32.38
2023-02-12T09:09:14.416Z,29.63
2023-02-12T09:11:41.608Z,36.08
2023-02-12T09:14:12.500Z,31.45
2023-02-12T09:16:40.642Z,34.40
2023-02-12T09:19:09.304Z,32.55
2023-02-12T09:21:36.243Z,32.33
2023-02-12T09:24:03.806Z,32.10
2023-02-12T09:26:31.090Z,35.65
2023-02-12T09:28:58.551Z,28.33
2023-02-12T09:31:29.173Z,31.98
2023-02-12T09:34:03.697Z,32.80
2023-02-12T09:36:31.711Z,32.88
2023-02-12T09:39:00.155Z,28.20
2023-02-12T09:41:45.024Z,31.05
2023-02-12T09:44:22.100Z,29.13
2023-02-12T09:46:54.204Z,30.20
2023-02-12T09:49:48.728Z,28.08
2023-02-12T09:52:22.528Z,28.45
2023-02-12T09:54:50.633Z,31.13
2023-02-12T09:57:23.986Z,28.58
2023-02-12T10:00:17.086Z,29.48
2023-02-12T10:02:44.148Z,26.33
2023-02-12T10:05:18.988Z,31.90
2023-02-12T10:08:16.133Z,29.65
2023-02-12T10:10:48.580Z,30.40
2023-02-12T10:13:27.754Z,29.75
2023-02-12T10:16:13.182Z,32.15
2023-02-12T10:18:56.025Z,36.33
2023-02-12T10:21:48.140Z,34.20
2023-02-12T10:24:37.450Z,38.67
2023-02-12T10:27:13.276Z,29.58
2023-02-12T10:29:44.697Z,33.20
2023-02-12T10:32:35.766Z,31.40
2023-02-12T10:35:14.060Z,33.72
2023-02-12T10:37:49.214Z,38.78
2023-02-12T10:40:27.751Z,42.97
2023-02-12T10:42:55.014Z,37.40
2023-02-12T10:45:26.610Z,29.05
2023-02-12T10:48:23.119Z,34.67
2023-02-12T10:51:10.285Z,32.78
2023-02-12T10:53:42.676Z,35.40
2023-02-12T10:56:15.418Z,35.47
2023-02-12T10:59:02.752Z,31.55
2023-02-12T11:01:34.189Z,40.83
2023-02-12T11:04:20.968Z,39.83
2023-02-12T11:07:04.280Z,37.50
2023-02-12T11:09:36.218Z,36.13
2023-02-12T11:12:04.114Z,39.03
2023-02-12T11:14:31.190Z,31.85
2023-02-12T11:17:00.348Z,32.97
2023-02-12T11:19:29.844Z,37.63
2023-02-12T11:22:19.015Z,34.05
2023-02-12T11:24:49.635Z,27.52
2023-02-12T11:27:16.430Z,28.95
2023-02-12T11:29:44.742Z,24.33
2023-02-12T11:32:17.702Z,22.33
2023-02-12T11:34:44.838Z,25.13
2023-02-12T11:37:18.306Z,27.17
2023-02-12T11:39:50.504Z,27.75
2023-02-12T11:42:24.497Z,19.55
2023-02-12T11:44:55.265Z,21.88
2023-02-12T11:47:25.921Z,27.95
2023-02-12T11:49:57.004Z,21.58
2023-02-12T11:52:31.497Z,25.77
2023-02-12T11:55:05.167Z,23.43
2023-02-12T11:57:39.907Z,23.20
2023-02-12T12:00:19.605Z,28.05
2023-02-12T12:03:21.594Z,25.30
2023-02-12T12:05:54.966Z,24.55
2023-02-12T12:08:29.367Z,22.90
2023-02-12T12:11:09.680Z,24.70
2023-02-12T12:13:53.985Z,25.55
2023-02-12T12:16:56.877Z,25.38
2023-02-12T12:19:52.903Z,29.02
2023-02-12T12:22:38.617Z,29.15
2023-02-12T12:25:27.375Z,21.17
2023-02-12T12:28:29.786Z,31.40
2023-02-12T12:31:12.585Z,25.90
2023-02-12T12:33:51.727Z,33.50
2023-02-12T12:36:42.658Z,28.75
2023-02-12T12:39:47.901Z,32.33
2023-02-12T12:42:56.137Z,28.42
2023-02-12T12:45:34.746Z,39.55
2023-02-12T12:48:13.312Z,31.98
2023-02-12T12:51:26.709Z,29.95
2023-02-12T12:53:56.741Z,34.22
2023-02-12T12:56:54.609Z,39.67
2023-02-12T12:59:30.451Z,33.17
2023-02-12T13:02:18.749Z,32.50
2023-02-12T13:05:11.714Z,27.85
2023-02-12T13:08:00.645Z,31.63
2023-02-12T13:10:45.978Z,27.13
2023-02-12T13:13:30.296Z,27.70
2023-02-12T13:15:57.438Z,30.27
2023-02-12T13:18:24.468Z,32.22
2023-02-12T13:21:04.343Z,30.88
2023-02-12T13:23:40.170Z,33.92
2023-02-12T13:26:31.227Z,37.85
2023-02-12T13:29:15.255Z,37.75
2023-02-12T13:31:49.955Z,33.33
2023-02-12T13:34:19.031Z,34.65
2023-02-12T13:36:47.060Z,30.42
2023-02-12T13:39:27.674Z,37.03
2023-02-12T13:42:19.623Z,33.72
2023-02-12T13:45:03.308Z,31.35
2023-02-12T13:47:35.790Z,37.97
2023-02-12T13:50:02.683Z,33.35
2023-02-12T13:52:41.706Z,34.35
2023-02-12T13:55:20.235Z,32.85
2023-02-12T13:57:47.212Z,37.20
2023-02-12T14:00:48.068Z,29.65
2023-02-12T14:03:15.194Z,37.00
2023-02-12T14:05:42.646Z,41.67
2023-02-12T14:08:34.943Z,37.53
2023-02-12T14:11:09.274Z,37.90
2023-02-12T14:13:52.114Z,34.00
2023-02-12T14:16:40.730Z,31.30
2023-02-12T14:19:38.476Z,37.10
2023-02-12T14:22:14.185Z,38.75
2023-02-12T14:24:49.355Z,40.47
2023-02-12T14:27:19.616Z,31.10
2023-02-12T14:30:25.844Z,34.03
2023-02-12T14:32:56.013Z,34.97
2023-02-12T14:35:40.693Z,29.85
2023-02-12T14:38:16.735Z,32.40
2023-02-12T14:40:50.649Z,26.25
2023-02-12T14:43:31.391Z,28.35
2023-02-12T14:46:24.268Z,30.15
2023-02-12T14:48:51.228Z,29.35
2023-02-12T14:51:31.742Z,31.67
2023-02-12T14:53:59.394Z,36.33
2023-02-12T14:56:27.271Z,31.77
2023-02-12T14:58:59.030Z,36.45
2023-02-12T15:01:34.235Z,31.13
2023-02-12T15:04:17.340Z,33.42
2023-02-12T15:06:53.947Z,29.38
2023-02-12T15:09:36.548Z,35.47
2023-02-12T15:12:11.132Z,31.08
2023-02-12T15:14:46.557Z,28.37
2023-02-12T15:17:35.350Z,31.02
2023-02-12T15:20:08.341Z,27.52
2023-02-12T15:22:38.274Z,28.83
2023-02-12T15:25:25.296Z,31.45
2023-02-12T15:27:56.394Z,28.92
2023-02-12T15:30:35.319Z,28.10
2023-02-12T15:33:05.894Z,28.45
2023-02-12T15:35:36.064Z,27.92
2023-02-12T15:38:04.361Z,27.38
2023-02-12T15:40:32.047Z,29.50
2023-02-12T15:43:03.042Z,29.95
2023-02-12T15:45:35.365Z,29.15
2023-02-12T15:48:10.509Z,28.42
2023-02-12T15:51:04.492Z,29.50
2023-02-12T15:53:31.500Z,30.20
2023-02-12T15:55:59.676Z,29.13
2023-02-12T15:58:49.962Z,34.90
2023-02-12T16:01:25.734Z,32.33
2023-02-12T16:03:55.857Z,34.10
2023-02-12T16:06:26.224Z,34.88
2023-02-12T16:09:02.434Z,35.30
2023-02-12T16:11:31.657Z,34.92
2023-02-12T16:14:01.478Z,34.03
2023-02-12T16:16:41.004Z,36.17
2023-02-12T16:19:08.003Z,37.10
2023-02-12T16:21:38.551Z,37.55
2023-02-12T16:24:06.250Z,35.38
2023-02-12T16:26:33.248Z,39.25
2023-02-12T16:29:00.157Z,33.30
2023-02-12T16:31:28.057Z,35.35
2023-02-12T16:33:58.646Z,35.25
2023-02-12T16:36:25.455Z,42.47
2023-02-12T16:39:04.079Z,41.33
2023-02-12T16:41:32.642Z,29.13
2023-02-12T16:44:02.351Z,31.25
2023-02-12T16:46:32.744Z,24.50
2023-02-12T16:49:02.384Z,29.77
2023-02-12T16:51:33.652Z,28.02
2023-02-12T16:54:02.952Z,24.58
2023-02-12T16:56:38.752Z,26.40
2023-02-12T16:59:06.803Z,22.58
2023-02-12T17:01:36.751Z,25.08
2023-02-12T17:04:09.022Z,25.13
2023-02-12T17:06:36.137Z,27.15
2023-02-12T17:09:03.172Z,21.38
2023-02-12T17:11:30.184Z,22.15
2023-02-12T17:13:57.322Z,26.13
2023-02-12T17:16:30.733Z,26.95
2023-02-12T17:18:59.510Z,24.92
2023-02-12T17:21:53.044Z,25.60
2023-02-12T17:24:22.838Z,23.60
2023-02-12T17:26:50.891Z,23.58
2023-02-12T17:29:18.839Z,25.65
2023-02-12T17:31:46.274Z,26.77
2023-02-12T17:34:13.811Z,28.27
2023-02-12T17:36:41.148Z,26.83
2023-02-12T17:39:09.538Z,25.27
2023-02-12T17:41:37.586Z,22.90
2023-02-12T17:44:04.745Z,22.83
2023-02-12T17:46:32.119Z,27.60
2023-02-12T17:48:59.146Z,21.95
2023-02-12T17:51:26.667Z,23.23
2023-02-12T17:53:53.778Z,23.63
2023-02-12T17:56:22.957Z,25.15
2023-02-12T17:58:50.141Z,24.73
2023-02-12T18:01:19.785Z,24.23
2023-02-12T18:03:47.111Z,31.25
2023-02-12T18:06:16.736Z,24.10
2023-02-12T18:08:43.981Z,26.20
2023-02-12T18:11:11.893Z,25.27
2023-02-12T18:13:39.625Z,23.33
2023-02-12T18:16:08.946Z,24.75
2023-02-12T18:18:36.751Z,21.02
2023-02-12T18:21:11.985Z,25.92
2023-02-12T18:23:39.593Z,32.92
2023-02-12T18:26:09.186Z,27.02
2023-02-12T18:28:36.694Z,30.38
2023-02-12T18:31:04.819Z,28.08
2023-02-12T18:33:32.245Z,30.42
2023-02-12T18:36:05.883Z,33.55
2023-02-12T18:38:35.384Z,29.08
2023-02-12T18:41:09.460Z,28.35
2023-02-12T18:43:37.230Z,21.83
2023-02-12T18:46:19.743Z,26.90
2023-02-12T18:48:47.543Z,28.98
2023-02-12T18:51:17.806Z,22.88
2023-02-12T18:53:45.172Z,26.25
2023-02-12T18:56:13.229Z,24.52
2023-02-12T18:58:40.954Z,21.73
2023-02-12T19:01:16.175Z,16.35
2023-02-12T19:03:44.417Z,20.55
2023-02-12T19:06:11.909Z,21.40
2023-02-12T19:08:39.445Z,27.10
2023-02-12T19:11:08.110Z,21.80
2023-02-12T19:13:35.107Z,19.70
2023-02-12T19:16:16.220Z,16.73
2023-02-12T19:18:43.228Z,22.23
2023-02-12T19:21:13.384Z,17.98
2023-02-12T19:23:40.577Z,16.85
2023-02-12T19:26:13.886Z,13.23
2023-02-12T19:28:42.265Z,14.18
2023-02-12T19:31:14.184Z,14.30
2023-02-12T19:33:42.773Z,17.60
2023-02-12T19:36:12.387Z,19.75
2023-02-12T19:38:40.508Z,20.17
2023-02-12T19:41:20.063Z,16.38
2023-02-12T19:43:47.445Z,17.55
2023-02-12T19:46:17.741Z,17.45
2023-02-12T19:48:46.348Z,15.18
2023-02-12T19:51:18.494Z,14.43
2023-02-12T19:53:47.207Z,17.88
2023-02-12T19:56:15.647Z,14.60
2023-02-12T19:58:43.104Z,14.85
2023-02-12T20:01:16.709Z,12.57
2023-02-12T20:03:45.245Z,13.93
2023-02-12T20:06:16.109Z,14.60
2023-02-12T20:08:44.391Z,14.50
2023-02-12T20:11:15.468Z,12.93
2023-02-12T20:13:42.988Z,15.90
2023-02-12T20:16:15.947Z,12.32
2023-02-12T20:18:44.861Z,19.42
2023-02-12T20:21:34.440Z,12.68
2023-02-12T20:24:02.396Z,11.65
2023-02-12T20:26:31.494Z,12.63
2023-02-12T20:29:00.132Z,10.98
2023-02-12T20:31:32.548Z,12.68
2023-02-12T20:34:07.542Z,12.98
2023-02-12T20:36:38.788Z,12.68
2023-02-12T20:39:08.312Z,13.40
2023-02-12T20:41:37.254Z,13.75
2023-02-12T20:44:06.885Z,14.30
2023-02-12T20:46:36.284Z,12.00
2023-02-12T20:49:03.867Z,14.35
2023-02-12T20:51:31.324Z,13.05
2023-02-12T20:54:01.324Z,14.70
2023-02-12T20:56:31.406Z,12.52
2023-02-12T20:58:59.717Z,13.05
2023-02-12T21:01:33.010Z,10.50
2023-02-12T21:04:06.909Z,14.07
2023-02-12T21:06:34.616Z,11.27
2023-02-12T21:09:01.857Z,14.05
2023-02-12T21:11:29.945Z,14.23
2023-02-12T21:14:07.803Z,10.32
2023-02-12T21:16:45.552Z,10.48
2023-02-12T21:19:14.265Z,10.05
2023-02-12T21:21:42.329Z,5.75
2023-02-12T21:24:12.893Z,6.85
2023-02-12T21:26:40.354Z,8.77
2023-02-12T21:29:07.601Z,8.55
2023-02-12T21:31:46.263Z,8.48
2023-02-12T21:34:16.122Z,8.05
2023-02-12T21:36:47.620Z,13.50
2023-02-12T21:39:24.512Z,4.93
2023-02-12T21:41:54.175Z,6.25
2023-02-12T21:44:22.458Z,7.30
2023-02-12T21:46:49.793Z,7.13
2023-02-12T21:49:24.828Z,6.32
2023-02-12T21:51:54.500Z,6.22
2023-02-12T21:54:22.713Z,6.38
2023-02-12T21:56:50.770Z,6.82
2023-02-12T21:59:18.594Z,6.15
2023-02-12T22:01:51.563Z,4.18
2023-02-12T22:04:19.751Z,4.38
2023-02-12T22:06:49.105Z,5.55
2023-02-12T22:09:21.194Z,6.53
2023-02-12T22:11:48.394Z,4.60
2023-02-12T22:14:17.410Z,4.40
2023-02-12T22:16:45.522Z,4.97
2023-02-12T22:19:12.677Z,6.28
2023-02-12T22:21:41.995Z,8.82
2023-02-12T22:24:11.718Z,4.40
2023-02-12T22:26:38.791Z,4.18
2023-02-12T22:29:09.187Z,4.20
2023-02-12T22:31:38.191Z,4.82
2023-02-12T22:34:08.417Z,3.97
2023-02-12T22:36:37.181Z,4.30
2023-02-12T22:39:05.004Z,4.38
2023-02-12T22:41:32.373Z,4.43
2023-02-12T22:44:00.773Z,5.85
2023-02-12T22:46:28.172Z,7.05
2023-02-12T22:48:55.459Z,5.10
2023-02-12T22:51:24.306Z,4.65
2023-02-12T22:53:51.613Z,4.80
2023-02-12T22:56:19.208Z,7.75
2023-02-12T22:58:46.520Z,4.65
2023-02-12T23:01:15.956Z,5.00
2023-02-12T23:03:43.354Z,7.85
2023-02-12T23:06:22.003Z,6.95
2023-02-12T23:08:54.800Z,11.43
2023-02-12T23:11:24.649Z,8.00
2023-02-12T23:13:52.521Z,7.68
2023-02-12T23:16:19.560Z,8.57
2023-02-12T23:18:46.588Z,4.85
2023-02-12T23:21:13.935Z,3.33
2023-02-12T23:23:41.185Z,3.35
2023-02-12T23:26:08.110Z,8.18
2023-02-12T23:28:35.135Z,5.03
2023-02-12T23:31:02.737Z,3.75
2023-02-12T23:33:29.964Z,3.53
2023-02-12T23:35:56.893Z,4.22
2023-02-12T23:38:23.764Z,5.25
2023-02-12T23:40:50.679Z,5.68
2023-02-12T23:43:17.626Z,6.07
2023-02-12T23:45:45.564Z,4.50
2023-02-12T23:48:13.111Z,6.95
2023-02-12T23:50:40.619Z,5.20
2023-02-12T23:53:07.729Z,4.72
2023-02-12T23:55:37.246Z,3.20
2023-02-12T23:58:05.306Z,3.67
